Qinzhou, China
Current Conditions -  °F | °C
As of 8:00 PM on Wednesday 26 Nov 2014 (Local Time) from ZGNN Reporting Station
Clear Clear  
Wind Chill: 72°   Ceiling: Unl
Heat Index: 72°   Visibility: 4mi
Dew Point: 66°   Wind: 4mph
Humidity: 83%   Direction: 50°NE
Pressure: 29.85"   Gusts: NA
Location:  21.95°N, 108.62°E
Report Text: ZGNN 261200Z 05002MPS 030V090 6000 NSC 22/19 Q1011 NOSIG
Loading
Personal Weather Stations






























Interactive Weather Map New forecast layout! Learn more

10-Day Weather Forecast

Advertisements
Track Severe Weather on mobile